< Typhoon 198005 1980 Season Typhoon 198007 >
Typhoon 198006 (HERBERT)
General InformationDetailed Track InformationTrack Information on Google Maps || Disaster Info.ResourceGoogle EarthGE AnimationAtom FeedGeoJSON
Detalied Best Track Wind (Time Zone = UTC)
Year Month Day Hour Lat. Long. Wind (kt) Gust (kt) Direc. of Major Storm Axis Radius of Major Storm Axis (nm) Radius of Minor Storm Axis (nm) Direc. of Major Gale Axis Radius of Major Gale Axis (nm) Radius of Minor Gale Axis (nm) Image
1980 6 22 00 9.0 130.5 0 0 - - - - - - --
1980 6 22 06 9.5 129.6 0 0 - - - - - - --
1980 6 22 12 10.0 128.7 0 0 - - - - - - --
1980 6 22 18 10.4 127.7 0 0 - - - - - - --
1980 6 23 00 11.0 126.5 0 0 - - - - - - --
1980 6 23 06 11.8 125.6 0 0 - - - - - - --
1980 6 23 12 11.8 124.0 0 0 - - - - - - --
1980 6 23 18 11.9 122.4 0 0 - - - - - - --
1980 6 24 00 12.0 120.8 0 0 - - - - - - --
1980 6 24 06 12.4 119.2 0 0 - - - - - - --
1980 6 24 12 13.0 117.9 35 0 - - - N 100 50 --
1980 6 24 18 13.8 116.3 35 0 - - - N 100 50 --
1980 6 25 00 14.5 115.0 35 0 - - - N 100 50 --
1980 6 25 06 14.9 113.9 40 0 - - - N 100 50 --
1980 6 25 12 16.0 113.0 45 0 - - - symmetric 80 80 --
1980 6 25 18 16.6 112.0 50 0 - - - symmetric 90 90 --
1980 6 26 00 17.2 111.0 45 0 - - - symmetric 90 90 --
1980 6 26 06 17.6 110.5 45 0 - - - symmetric 90 90 --
1980 6 26 12 18.0 110.0 45 0 - - - symmetric 90 90 --
1980 6 26 18 18.6 109.8 45 0 - - - symmetric 80 80 --
1980 6 27 00 19.2 109.6 35 0 - - - symmetric 70 70 --
1980 6 27 06 19.7 109.5 40 0 - - - symmetric 70 70 --
1980 6 27 12 20.2 109.4 40 0 - - - symmetric 70 70 --
1980 6 27 18 20.7 109.2 40 0 - - - symmetric 80 80 --
1980 6 28 00 21.2 109.0 35 0 - - - symmetric 70 70 --
1980 6 28 06 21.7 108.5 35 0 - - - symmetric 60 60 --
1980 6 28 12 22.0 107.0 0 0 - - - - - - --
1980 6 28 18 22.5 105.0 0 0 - - - - - - --
1980 6 29 00 22.7 103.5 0 0 - - - - - - --
1980 6 29 06 23.0 102.0 0 0 - - - - - - --
Japan Meteorological Agency Best Track Data | Correction Date : 1992-10-21
< Typhoon 198005 1980 Season Typhoon 198007 >

Help